sensor_id;sensor_type;location;lat;lon;timestamp;P1;durP1;ratioP1;P2;durP2;ratioP2
27161;SDS011;54464;50.558;9.704;2023-03-12T00:02:05;4.83;;;2.90;;
27161;SDS011;54464;50.558;9.704;2023-03-12T00:04:31;3.60;;;2.93;;
27161;SDS011;54464;50.558;9.704;2023-03-12T00:06:58;4.67;;;2.67;;
27161;SDS011;54464;50.558;9.704;2023-03-12T00:09:24;4.20;;;2.87;;
27161;SDS011;54464;50.558;9.704;2023-03-12T00:11:50;4.37;;;2.97;;
27161;SDS011;54464;50.558;9.704;2023-03-12T00:14:15;6.20;;;3.13;;
27161;SDS011;54464;50.558;9.704;2023-03-12T00:16:41;7.67;;;3.23;;
27161;SDS011;54464;50.558;9.704;2023-03-12T00:19:08;5.87;;;3.40;;
27161;SDS011;54464;50.558;9.704;2023-03-12T00:21:36;4.53;;;3.30;;
27161;SDS011;54464;50.558;9.704;2023-03-12T00:24:02;5.73;;;3.27;;
27161;SDS011;54464;50.558;9.704;2023-03-12T00:26:28;5.00;;;2.87;;
27161;SDS011;54464;50.558;9.704;2023-03-12T00:28:55;5.50;;;3.50;;
27161;SDS011;54464;50.558;9.704;2023-03-12T00:31:24;7.67;;;4.30;;
27161;SDS011;54464;50.558;9.704;2023-03-12T00:33:52;7.43;;;3.70;;
27161;SDS011;54464;50.558;9.704;2023-03-12T00:36:19;4.97;;;3.07;;
27161;SDS011;54464;50.558;9.704;2023-03-12T00:38:48;4.13;;;3.20;;
27161;SDS011;54464;50.558;9.704;2023-03-12T00:41:15;5.73;;;3.20;;
27161;SDS011;54464;50.558;9.704;2023-03-12T00:43:40;4.53;;;3.30;;
27161;SDS011;54464;50.558;9.704;2023-03-12T00:46:06;4.93;;;3.23;;
27161;SDS011;54464;50.558;9.704;2023-03-12T00:48:32;5.87;;;3.67;;
27161;SDS011;54464;50.558;9.704;2023-03-12T00:50:57;11.20;;;4.50;;
27161;SDS011;54464;50.558;9.704;2023-03-12T00:53:23;10.10;;;5.00;;
27161;SDS011;54464;50.558;9.704;2023-03-12T00:55:49;11.40;;;5.50;;
27161;SDS011;54464;50.558;9.704;2023-03-12T00:58:15;9.80;;;4.97;;
27161;SDS011;54464;50.558;9.704;2023-03-12T01:00:40;7.03;;;4.10;;
27161;SDS011;54464;50.558;9.704;2023-03-12T01:03:06;5.07;;;3.63;;
27161;SDS011;54464;50.558;9.704;2023-03-12T01:05:32;6.50;;;3.87;;
27161;SDS011;54464;50.558;9.704;2023-03-12T01:08:01;7.60;;;3.07;;
27161;SDS011;54464;50.558;9.704;2023-03-12T01:10:29;4.10;;;3.10;;
27161;SDS011;54464;50.558;9.704;2023-03-12T01:12:54;3.80;;;2.90;;
27161;SDS011;54464;50.558;9.704;2023-03-12T01:15:20;4.97;;;2.97;;
27161;SDS011;54464;50.558;9.704;2023-03-12T01:17:46;6.90;;;3.40;;
27161;SDS011;54464;50.558;9.704;2023-03-12T01:20:12;6.20;;;2.80;;
27161;SDS011;54464;50.558;9.704;2023-03-12T01:22:38;4.87;;;2.80;;
27161;SDS011;54464;50.558;9.704;2023-03-12T01:25:04;3.50;;;2.63;;
27161;SDS011;54464;50.558;9.704;2023-03-12T01:27:30;3.53;;;2.90;;
27161;SDS011;54464;50.558;9.704;2023-03-12T01:29:55;5.93;;;2.60;;
27161;SDS011;54464;50.558;9.704;2023-03-12T01:32:21;6.73;;;2.70;;
27161;SDS011;54464;50.558;9.704;2023-03-12T01:34:46;4.03;;;2.30;;
27161;SDS011;54464;50.558;9.704;2023-03-12T01:37:12;3.00;;;2.60;;
27161;SDS011;54464;50.558;9.704;2023-03-12T01:39:38;4.47;;;2.60;;
27161;SDS011;54464;50.558;9.704;2023-03-12T01:42:04;4.73;;;2.70;;
27161;SDS011;54464;50.558;9.704;2023-03-12T01:44:30;4.30;;;2.47;;
27161;SDS011;54464;50.558;9.704;2023-03-12T01:47:12;3.93;;;2.40;;
27161;SDS011;54464;50.558;9.704;2023-03-12T01:49:38;3.27;;;2.47;;
27161;SDS011;54464;50.558;9.704;2023-03-12T01:52:04;2.80;;;2.43;;
27161;SDS011;54464;50.558;9.704;2023-03-12T01:57:15;3.93;;;2.30;;
27161;SDS011;54464;50.558;9.704;2023-03-12T01:59:49;3.83;;;2.60;;
27161;SDS011;54464;50.558;9.704;2023-03-12T02:02:18;5.10;;;2.30;;
27161;SDS011;54464;50.558;9.704;2023-03-12T02:04:50;5.67;;;2.50;;
27161;SDS011;54464;50.558;9.704;2023-03-12T02:07:21;3.57;;;2.33;;
27161;SDS011;54464;50.558;9.704;2023-03-12T02:09:47;4.17;;;2.70;;
27161;SDS011;54464;50.558;9.704;2023-03-12T02:12:14;5.03;;;2.63;;
27161;SDS011;54464;50.558;9.704;2023-03-12T02:14:40;3.33;;;2.40;;
27161;SDS011;54464;50.558;9.704;2023-03-12T02:17:06;2.97;;;2.33;;
27161;SDS011;54464;50.558;9.704;2023-03-12T02:21:58;4.70;;;2.50;;
27161;SDS011;54464;50.558;9.704;2023-03-12T02:27:15;3.63;;;2.17;;
27161;SDS011;54464;50.558;9.704;2023-03-12T02:29:42;5.03;;;2.60;;
27161;SDS011;54464;50.558;9.704;2023-03-12T02:32:11;4.27;;;2.47;;
27161;SDS011;54464;50.558;9.704;2023-03-12T02:34:50;4.70;;;2.60;;
27161;SDS011;54464;50.558;9.704;2023-03-12T02:37:16;5.80;;;2.47;;
27161;SDS011;54464;50.558;9.704;2023-03-12T02:39:43;3.70;;;2.27;;
27161;SDS011;54464;50.558;9.704;2023-03-12T02:42:15;2.87;;;2.30;;
27161;SDS011;54464;50.558;9.704;2023-03-12T02:44:41;2.77;;;2.10;;
27161;SDS011;54464;50.558;9.704;2023-03-12T02:47:07;3.50;;;2.27;;
27161;SDS011;54464;50.558;9.704;2023-03-12T02:49:33;4.40;;;2.30;;
27161;SDS011;54464;50.558;9.704;2023-03-12T02:51:59;4.47;;;2.33;;
27161;SDS011;54464;50.558;9.704;2023-03-12T02:54:26;4.20;;;2.40;;
27161;SDS011;54464;50.558;9.704;2023-03-12T02:56:52;4.53;;;2.27;;
27161;SDS011;54464;50.558;9.704;2023-03-12T02:59:19;3.73;;;2.17;;
27161;SDS011;54464;50.558;9.704;2023-03-12T03:01:46;5.00;;;2.33;;
27161;SDS011;54464;50.558;9.704;2023-03-12T03:04:12;3.60;;;2.07;;
27161;SDS011;54464;50.558;9.704;2023-03-12T03:06:39;3.70;;;2.10;;
27161;SDS011;54464;50.558;9.704;2023-03-12T03:09:07;5.07;;;2.57;;
27161;SDS011;54464;50.558;9.704;2023-03-12T03:11:33;5.03;;;2.70;;
27161;SDS011;54464;50.558;9.704;2023-03-12T03:13:58;4.63;;;2.37;;
27161;SDS011;54464;50.558;9.704;2023-03-12T03:16:24;5.57;;;2.47;;
27161;SDS011;54464;50.558;9.704;2023-03-12T03:18:50;4.10;;;2.47;;
27161;SDS011;54464;50.558;9.704;2023-03-12T03:21:15;2.97;;;2.17;;
27161;SDS011;54464;50.558;9.704;2023-03-12T03:23:42;3.27;;;2.30;;
27161;SDS011;54464;50.558;9.704;2023-03-12T03:26:08;4.30;;;2.70;;
27161;SDS011;54464;50.558;9.704;2023-03-12T03:28:34;3.13;;;2.30;;
27161;SDS011;54464;50.558;9.704;2023-03-12T03:31:00;5.77;;;2.60;;
27161;SDS011;54464;50.558;9.704;2023-03-12T03:33:30;3.37;;;2.40;;
27161;SDS011;54464;50.558;9.704;2023-03-12T03:35:58;3.83;;;2.50;;
27161;SDS011;54464;50.558;9.704;2023-03-12T03:38:25;5.40;;;2.57;;
27161;SDS011;54464;50.558;9.704;2023-03-12T03:40:52;3.93;;;2.20;;
27161;SDS011;54464;50.558;9.704;2023-03-12T03:43:17;3.50;;;2.60;;
27161;SDS011;54464;50.558;9.704;2023-03-12T03:45:43;5.43;;;2.60;;
27161;SDS011;54464;50.558;9.704;2023-03-12T03:48:10;2.97;;;2.03;;
27161;SDS011;54464;50.558;9.704;2023-03-12T03:50:40;4.13;;;2.30;;
27161;SDS011;54464;50.558;9.704;2023-03-12T03:53:06;3.23;;;2.03;;
27161;SDS011;54464;50.558;9.704;2023-03-12T03:55:36;4.80;;;2.40;;
27161;SDS011;54464;50.558;9.704;2023-03-12T03:58:05;3.43;;;2.30;;
27161;SDS011;54464;50.558;9.704;2023-03-12T04:00:31;4.03;;;2.10;;
27161;SDS011;54464;50.558;9.704;2023-03-12T04:02:57;4.20;;;2.33;;
27161;SDS011;54464;50.558;9.704;2023-03-12T04:05:23;3.53;;;2.30;;
27161;SDS011;54464;50.558;9.704;2023-03-12T04:07:50;3.43;;;2.43;;
27161;SDS011;54464;50.558;9.704;2023-03-12T04:10:18;3.40;;;2.20;;
27161;SDS011;54464;50.558;9.704;2023-03-12T04:12:45;7.77;;;2.37;;
27161;SDS011;54464;50.558;9.704;2023-03-12T04:15:10;4.87;;;2.20;;
27161;SDS011;54464;50.558;9.704;2023-03-12T04:17:36;3.60;;;2.20;;
27161;SDS011;54464;50.558;9.704;2023-03-12T04:20:01;3.77;;;2.50;;
27161;SDS011;54464;50.558;9.704;2023-03-12T04:22:31;5.63;;;2.20;;
27161;SDS011;54464;50.558;9.704;2023-03-12T04:24:56;2.70;;;2.00;;
27161;SDS011;54464;50.558;9.704;2023-03-12T04:27:22;3.30;;;2.30;;
27161;SDS011;54464;50.558;9.704;2023-03-12T04:29:48;5.63;;;2.33;;
27161;SDS011;54464;50.558;9.704;2023-03-12T04:32:13;2.93;;;1.87;;
27161;SDS011;54464;50.558;9.704;2023-03-12T04:34:39;3.37;;;2.10;;
27161;SDS011;54464;50.558;9.704;2023-03-12T04:37:05;3.33;;;1.90;;
27161;SDS011;54464;50.558;9.704;2023-03-12T04:39:30;2.50;;;1.80;;
27161;SDS011;54464;50.558;9.704;2023-03-12T04:41:56;3.77;;;2.23;;
27161;SDS011;54464;50.558;9.704;2023-03-12T04:44:22;3.47;;;1.70;;
27161;SDS011;54464;50.558;9.704;2023-03-12T04:46:47;4.13;;;2.00;;
27161;SDS011;54464;50.558;9.704;2023-03-12T04:49:13;4.57;;;2.07;;
27161;SDS011;54464;50.558;9.704;2023-03-12T04:51:38;3.33;;;2.20;;
27161;SDS011;54464;50.558;9.704;2023-03-12T04:54:04;3.97;;;2.27;;
27161;SDS011;54464;50.558;9.704;2023-03-12T04:56:30;4.47;;;2.10;;
27161;SDS011;54464;50.558;9.704;2023-03-12T04:58:56;4.20;;;2.40;;
27161;SDS011;54464;50.558;9.704;2023-03-12T05:03:49;2.93;;;2.00;;
27161;SDS011;54464;50.558;9.704;2023-03-12T05:06:14;3.40;;;2.00;;
27161;SDS011;54464;50.558;9.704;2023-03-12T05:08:40;4.37;;;2.37;;
27161;SDS011;54464;50.558;9.704;2023-03-12T05:11:06;5.70;;;2.67;;
27161;SDS011;54464;50.558;9.704;2023-03-12T05:13:31;5.40;;;2.80;;
27161;SDS011;54464;50.558;9.704;2023-03-12T05:15:57;4.43;;;2.60;;
27161;SDS011;54464;50.558;9.704;2023-03-12T05:18:23;4.83;;;2.20;;
27161;SDS011;54464;50.558;9.704;2023-03-12T05:21:23;3.70;;;1.90;;
27161;SDS011;54464;50.558;9.704;2023-03-12T05:23:43;4.40;;;2.10;;
27161;SDS011;54464;50.558;9.704;2023-03-12T05:28:41;4.27;;;2.33;;
27161;SDS011;54464;50.558;9.704;2023-03-12T05:31:07;2.97;;;2.07;;
27161;SDS011;54464;50.558;9.704;2023-03-12T05:33:34;4.50;;;2.30;;
27161;SDS011;54464;50.558;9.704;2023-03-12T05:36:01;4.00;;;2.00;;
27161;SDS011;54464;50.558;9.704;2023-03-12T05:38:26;2.30;;;2.00;;
27161;SDS011;54464;50.558;9.704;2023-03-12T05:40:53;3.37;;;2.10;;
27161;SDS011;54464;50.558;9.704;2023-03-12T05:43:20;3.50;;;1.93;;
27161;SDS011;54464;50.558;9.704;2023-03-12T05:45:46;2.87;;;1.90;;
27161;SDS011;54464;50.558;9.704;2023-03-12T05:48:12;4.00;;;2.20;;
27161;SDS011;54464;50.558;9.704;2023-03-12T05:50:38;6.17;;;2.00;;
27161;SDS011;54464;50.558;9.704;2023-03-12T05:53:04;3.00;;;2.13;;
27161;SDS011;54464;50.558;9.704;2023-03-12T05:55:32;5.03;;;2.17;;
27161;SDS011;54464;50.558;9.704;2023-03-12T05:57:59;3.30;;;2.10;;
27161;SDS011;54464;50.558;9.704;2023-03-12T06:00:25;4.80;;;1.87;;
27161;SDS011;54464;50.558;9.704;2023-03-12T06:02:51;2.33;;;1.80;;
27161;SDS011;54464;50.558;9.704;2023-03-12T06:05:16;5.30;;;1.90;;
27161;SDS011;54464;50.558;9.704;2023-03-12T06:07:42;3.47;;;1.83;;
27161;SDS011;54464;50.558;9.704;2023-03-12T06:10:08;6.40;;;2.07;;
27161;SDS011;54464;50.558;9.704;2023-03-12T06:12:34;3.80;;;2.17;;
27161;SDS011;54464;50.558;9.704;2023-03-12T06:15:00;4.60;;;2.20;;
27161;SDS011;54464;50.558;9.704;2023-03-12T06:17:27;4.07;;;2.00;;
27161;SDS011;54464;50.558;9.704;2023-03-12T06:19:54;3.30;;;1.90;;
27161;SDS011;54464;50.558;9.704;2023-03-12T06:22:19;4.73;;;2.00;;
27161;SDS011;54464;50.558;9.704;2023-03-12T06:24:46;5.43;;;2.20;;
27161;SDS011;54464;50.558;9.704;2023-03-12T06:27:12;4.27;;;1.80;;
27161;SDS011;54464;50.558;9.704;2023-03-12T06:29:38;4.97;;;2.03;;
27161;SDS011;54464;50.558;9.704;2023-03-12T06:32:04;2.03;;;1.83;;
27161;SDS011;54464;50.558;9.704;2023-03-12T06:34:30;3.57;;;2.03;;
27161;SDS011;54464;50.558;9.704;2023-03-12T06:36:56;4.70;;;2.10;;
27161;SDS011;54464;50.558;9.704;2023-03-12T06:39:22;5.53;;;2.47;;
27161;SDS011;54464;50.558;9.704;2023-03-12T06:41:48;4.23;;;2.07;;
27161;SDS011;54464;50.558;9.704;2023-03-12T06:44:14;3.00;;;1.60;;
27161;SDS011;54464;50.558;9.704;2023-03-12T06:46:40;3.53;;;2.10;;
27161;SDS011;54464;50.558;9.704;2023-03-12T06:49:06;2.37;;;1.90;;
27161;SDS011;54464;50.558;9.704;2023-03-12T06:51:32;3.60;;;2.00;;
27161;SDS011;54464;50.558;9.704;2023-03-12T06:53:57;3.90;;;1.53;;
27161;SDS011;54464;50.558;9.704;2023-03-12T06:56:26;2.90;;;2.13;;
27161;SDS011;54464;50.558;9.704;2023-03-12T06:58:52;3.73;;;2.40;;
27161;SDS011;54464;50.558;9.704;2023-03-12T07:01:18;4.77;;;2.23;;
27161;SDS011;54464;50.558;9.704;2023-03-12T07:03:43;5.37;;;2.37;;
27161;SDS011;54464;50.558;9.704;2023-03-12T07:06:13;4.23;;;2.37;;
27161;SDS011;54464;50.558;9.704;2023-03-12T07:08:40;7.17;;;2.53;;
27161;SDS011;54464;50.558;9.704;2023-03-12T07:11:05;4.43;;;2.37;;
27161;SDS011;54464;50.558;9.704;2023-03-12T07:13:31;5.00;;;1.93;;
27161;SDS011;54464;50.558;9.704;2023-03-12T07:15:57;4.57;;;2.37;;
27161;SDS011;54464;50.558;9.704;2023-03-12T07:18:26;7.30;;;2.80;;
27161;SDS011;54464;50.558;9.704;2023-03-12T07:20:52;7.37;;;3.17;;
27161;SDS011;54464;50.558;9.704;2023-03-12T07:23:17;4.33;;;3.03;;
27161;SDS011;54464;50.558;9.704;2023-03-12T07:25:43;7.40;;;3.53;;
27161;SDS011;54464;50.558;9.704;2023-03-12T07:28:09;5.37;;;2.60;;
27161;SDS011;54464;50.558;9.704;2023-03-12T07:30:36;9.50;;;4.33;;
27161;SDS011;54464;50.558;9.704;2023-03-12T07:33:03;5.33;;;3.30;;
27161;SDS011;54464;50.558;9.704;2023-03-12T07:35:30;6.03;;;3.20;;
27161;SDS011;54464;50.558;9.704;2023-03-12T07:37:56;5.73;;;2.63;;
27161;SDS011;54464;50.558;9.704;2023-03-12T07:40:22;5.50;;;3.20;;
27161;SDS011;54464;50.558;9.704;2023-03-12T07:42:49;5.53;;;3.23;;
27161;SDS011;54464;50.558;9.704;2023-03-12T07:45:15;3.40;;;2.30;;
27161;SDS011;54464;50.558;9.704;2023-03-12T07:47:41;3.37;;;2.07;;
27161;SDS011;54464;50.558;9.704;2023-03-12T07:50:07;6.87;;;2.93;;
27161;SDS011;54464;50.558;9.704;2023-03-12T07:52:33;3.80;;;2.33;;
27161;SDS011;54464;50.558;9.704;2023-03-12T07:54:58;4.77;;;2.43;;
27161;SDS011;54464;50.558;9.704;2023-03-12T07:57:24;4.10;;;1.80;;
27161;SDS011;54464;50.558;9.704;2023-03-12T07:59:50;3.03;;;1.40;;
27161;SDS011;54464;50.558;9.704;2023-03-12T08:02:15;4.33;;;1.80;;
27161;SDS011;54464;50.558;9.704;2023-03-12T08:04:41;4.50;;;2.20;;
27161;SDS011;54464;50.558;9.704;2023-03-12T08:07:07;5.47;;;1.93;;
27161;SDS011;54464;50.558;9.704;2023-03-12T08:09:33;3.00;;;1.63;;
27161;SDS011;54464;50.558;9.704;2023-03-12T08:11:59;3.83;;;2.23;;
27161;SDS011;54464;50.558;9.704;2023-03-12T08:14:24;1.83;;;1.47;;
27161;SDS011;54464;50.558;9.704;2023-03-12T08:16:53;5.17;;;2.53;;
27161;SDS011;54464;50.558;9.704;2023-03-12T08:19:19;4.40;;;2.50;;
27161;SDS011;54464;50.558;9.704;2023-03-12T08:21:45;4.93;;;1.67;;
27161;SDS011;54464;50.558;9.704;2023-03-12T08:24:10;3.07;;;1.07;;
27161;SDS011;54464;50.558;9.704;2023-03-12T08:26:36;3.43;;;1.60;;
27161;SDS011;54464;50.558;9.704;2023-03-12T08:29:01;4.83;;;1.70;;
27161;SDS011;54464;50.558;9.704;2023-03-12T08:31:27;5.10;;;2.00;;
27161;SDS011;54464;50.558;9.704;2023-03-12T08:33:53;4.47;;;1.90;;
27161;SDS011;54464;50.558;9.704;2023-03-12T08:36:19;3.30;;;1.93;;
27161;SDS011;54464;50.558;9.704;2023-03-12T08:38:44;4.03;;;1.60;;
27161;SDS011;54464;50.558;9.704;2023-03-12T08:41:10;3.10;;;2.10;;
27161;SDS011;54464;50.558;9.704;2023-03-12T08:43:36;2.10;;;1.60;;
27161;SDS011;54464;50.558;9.704;2023-03-12T08:46:02;5.47;;;1.53;;
27161;SDS011;54464;50.558;9.704;2023-03-12T08:48:29;2.23;;;1.53;;
27161;SDS011;54464;50.558;9.704;2023-03-12T08:50:56;3.03;;;1.53;;
27161;SDS011;54464;50.558;9.704;2023-03-12T08:53:24;4.10;;;1.77;;
27161;SDS011;54464;50.558;9.704;2023-03-12T08:55:53;3.60;;;1.90;;
27161;SDS011;54464;50.558;9.704;2023-03-12T08:58:20;2.83;;;1.40;;
27161;SDS011;54464;50.558;9.704;2023-03-12T09:00:47;3.00;;;1.23;;
27161;SDS011;54464;50.558;9.704;2023-03-12T09:03:12;3.47;;;1.30;;
27161;SDS011;54464;50.558;9.704;2023-03-12T09:05:39;3.50;;;1.57;;
27161;SDS011;54464;50.558;9.704;2023-03-12T09:08:06;6.37;;;3.33;;
27161;SDS011;54464;50.558;9.704;2023-03-12T09:10:32;3.73;;;2.63;;
27161;SDS011;54464;50.558;9.704;2023-03-12T09:12:58;8.20;;;4.30;;
27161;SDS011;54464;50.558;9.704;2023-03-12T09:15:24;3.80;;;1.90;;
27161;SDS011;54464;50.558;9.704;2023-03-12T09:17:50;4.87;;;1.90;;
27161;SDS011;54464;50.558;9.704;2023-03-12T09:20:18;3.27;;;2.17;;
27161;SDS011;54464;50.558;9.704;2023-03-12T09:22:44;6.27;;;4.07;;
27161;SDS011;54464;50.558;9.704;2023-03-12T09:25:09;4.03;;;1.87;;
27161;SDS011;54464;50.558;9.704;2023-03-12T09:27:36;4.93;;;2.37;;
27161;SDS011;54464;50.558;9.704;2023-03-12T09:30:14;5.53;;;2.47;;
27161;SDS011;54464;50.558;9.704;2023-03-12T09:32:42;5.57;;;2.50;;
27161;SDS011;54464;50.558;9.704;2023-03-12T09:35:11;5.33;;;2.27;;
27161;SDS011;54464;50.558;9.704;2023-03-12T09:37:38;5.60;;;2.40;;
27161;SDS011;54464;50.558;9.704;2023-03-12T09:40:04;7.13;;;2.40;;
27161;SDS011;54464;50.558;9.704;2023-03-12T09:42:41;3.03;;;2.23;;
27161;SDS011;54464;50.558;9.704;2023-03-12T09:45:17;4.30;;;1.80;;
27161;SDS011;54464;50.558;9.704;2023-03-12T09:47:49;2.13;;;1.50;;
27161;SDS011;54464;50.558;9.704;2023-03-12T09:50:28;4.13;;;2.43;;
27161;SDS011;54464;50.558;9.704;2023-03-12T09:55:44;5.73;;;2.63;;
27161;SDS011;54464;50.558;9.704;2023-03-12T09:58:14;4.33;;;2.30;;
27161;SDS011;54464;50.558;9.704;2023-03-12T10:00:42;4.57;;;2.87;;
27161;SDS011;54464;50.558;9.704;2023-03-12T10:06:09;6.57;;;3.87;;
27161;SDS011;54464;50.558;9.704;2023-03-12T10:11:33;5.43;;;2.20;;
27161;SDS011;54464;50.558;9.704;2023-03-12T10:14:10;5.90;;;3.13;;
27161;SDS011;54464;50.558;9.704;2023-03-12T10:27:42;6.17;;;2.90;;
27161;SDS011;54464;50.558;9.704;2023-03-12T10:30:12;6.23;;;3.50;;
27161;SDS011;54464;50.558;9.704;2023-03-12T10:32:46;5.13;;;2.93;;
27161;SDS011;54464;50.558;9.704;2023-03-12T10:35:18;4.47;;;3.30;;
27161;SDS011;54464;50.558;9.704;2023-03-12T10:37:50;3.30;;;2.60;;
27161;SDS011;54464;50.558;9.704;2023-03-12T10:40:25;9.13;;;3.77;;
27161;SDS011;54464;50.558;9.704;2023-03-12T10:42:58;5.27;;;3.03;;
27161;SDS011;54464;50.558;9.704;2023-03-12T10:45:26;12.10;;;4.80;;
27161;SDS011;54464;50.558;9.704;2023-03-12T10:48:01;5.13;;;3.23;;
27161;SDS011;54464;50.558;9.704;2023-03-12T10:50:34;9.63;;;4.13;;
27161;SDS011;54464;50.558;9.704;2023-03-12T10:53:21;6.20;;;3.80;;
27161;SDS011;54464;50.558;9.704;2023-03-12T10:56:06;6.03;;;2.97;;
27161;SDS011;54464;50.558;9.704;2023-03-12T10:58:42;9.30;;;3.90;;
27161;SDS011;54464;50.558;9.704;2023-03-12T11:01:26;8.00;;;3.20;;
27161;SDS011;54464;50.558;9.704;2023-03-12T11:06:43;8.33;;;4.27;;
27161;SDS011;54464;50.558;9.704;2023-03-12T11:09:28;6.23;;;3.00;;
27161;SDS011;54464;50.558;9.704;2023-03-12T11:11:55;4.97;;;4.23;;
27161;SDS011;54464;50.558;9.704;2023-03-12T11:14:25;5.50;;;3.73;;
27161;SDS011;54464;50.558;9.704;2023-03-12T11:16:53;5.67;;;3.37;;
27161;SDS011;54464;50.558;9.704;2023-03-12T11:19:29;5.37;;;4.60;;
27161;SDS011;54464;50.558;9.704;2023-03-12T11:21:59;8.83;;;4.27;;
27161;SDS011;54464;50.558;9.704;2023-03-12T11:24:29;5.07;;;3.50;;
27161;SDS011;54464;50.558;9.704;2023-03-12T11:26:58;6.23;;;4.57;;
27161;SDS011;54464;50.558;9.704;2023-03-12T11:29:25;7.30;;;5.57;;
27161;SDS011;54464;50.558;9.704;2023-03-12T11:34:31;7.57;;;5.40;;
27161;SDS011;54464;50.558;9.704;2023-03-12T11:37:03;5.73;;;4.30;;
27161;SDS011;54464;50.558;9.704;2023-03-12T11:39:45;8.67;;;7.00;;
27161;SDS011;54464;50.558;9.704;2023-03-12T11:42:44;3.67;;;3.10;;
27161;SDS011;54464;50.558;9.704;2023-03-12T11:45:39;3.43;;;3.10;;
27161;SDS011;54464;50.558;9.704;2023-03-12T11:48:33;9.23;;;6.73;;
27161;SDS011;54464;50.558;9.704;2023-03-12T11:51:24;7.00;;;5.67;;
27161;SDS011;54464;50.558;9.704;2023-03-12T11:54:18;9.30;;;7.20;;
27161;SDS011;54464;50.558;9.704;2023-03-12T11:56:52;6.30;;;4.67;;
27161;SDS011;54464;50.558;9.704;2023-03-12T12:15:52;7.40;;;6.60;;
27161;SDS011;54464;50.558;9.704;2023-03-12T12:21:05;3.90;;;3.43;;
27161;SDS011;54464;50.558;9.704;2023-03-12T12:23:53;3.83;;;3.43;;
27161;SDS011;54464;50.558;9.704;2023-03-12T12:26:43;6.23;;;5.07;;
27161;SDS011;54464;50.558;9.704;2023-03-12T12:32:10;7.33;;;5.63;;
27161;SDS011;54464;50.558;9.704;2023-03-12T12:34:49;4.40;;;3.23;;
27161;SDS011;54464;50.558;9.704;2023-03-12T12:43:02;4.17;;;3.77;;
27161;SDS011;54464;50.558;9.704;2023-03-12T12:45:38;3.93;;;3.10;;
27161;SDS011;54464;50.558;9.704;2023-03-12T12:48:07;3.73;;;3.40;;
27161;SDS011;54464;50.558;9.704;2023-03-12T12:50:39;4.77;;;4.37;;
27161;SDS011;54464;50.558;9.704;2023-03-12T13:01:30;8.40;;;7.53;;
27161;SDS011;54464;50.558;9.704;2023-03-12T13:04:09;5.00;;;4.53;;
27161;SDS011;54464;50.558;9.704;2023-03-12T13:12:14;3.77;;;3.43;;
27161;SDS011;54464;50.558;9.704;2023-03-12T13:14:59;6.00;;;5.37;;
27161;SDS011;54464;50.558;9.704;2023-03-12T13:17:32;3.57;;;2.83;;
27161;SDS011;54464;50.558;9.704;2023-03-12T13:20:09;3.03;;;2.77;;
27161;SDS011;54464;50.558;9.704;2023-03-12T13:30:50;6.10;;;4.77;;
27161;SDS011;54464;50.558;9.704;2023-03-12T13:33:17;2.33;;;2.13;;
27161;SDS011;54464;50.558;9.704;2023-03-12T13:36:08;4.83;;;3.73;;
27161;SDS011;54464;50.558;9.704;2023-03-12T13:38:53;4.17;;;3.73;;
27161;SDS011;54464;50.558;9.704;2023-03-12T13:46:59;10.13;;;8.80;;
27161;SDS011;54464;50.558;9.704;2023-03-12T13:49:54;13.67;;;10.17;;
27161;SDS011;54464;50.558;9.704;2023-03-12T13:52:36;9.20;;;7.20;;
27161;SDS011;54464;50.558;9.704;2023-03-12T13:57:48;5.23;;;4.73;;
27161;SDS011;54464;50.558;9.704;2023-03-12T14:00:23;4.83;;;3.97;;
27161;SDS011;54464;50.558;9.704;2023-03-12T14:03:15;7.67;;;5.80;;
27161;SDS011;54464;50.558;9.704;2023-03-12T14:05:53;5.50;;;4.77;;
27161;SDS011;54464;50.558;9.704;2023-03-12T14:16:48;8.03;;;6.53;;
27161;SDS011;54464;50.558;9.704;2023-03-12T14:19:17;11.70;;;8.50;;
27161;SDS011;54464;50.558;9.704;2023-03-12T14:21:47;13.93;;;10.73;;
27161;SDS011;54464;50.558;9.704;2023-03-12T14:24:36;15.30;;;11.17;;
27161;SDS011;54464;50.558;9.704;2023-03-12T14:27:04;16.00;;;11.07;;
27161;SDS011;54464;50.558;9.704;2023-03-12T14:29:39;15.93;;;11.73;;
27161;SDS011;54464;50.558;9.704;2023-03-12T14:32:16;15.53;;;11.60;;
27161;SDS011;54464;50.558;9.704;2023-03-12T14:34:45;11.97;;;7.67;;
27161;SDS011;54464;50.558;9.704;2023-03-12T14:37:27;12.73;;;10.33;;
27161;SDS011;54464;50.558;9.704;2023-03-12T14:40:00;17.50;;;10.43;;
27161;SDS011;54464;50.558;9.704;2023-03-12T14:42:32;12.07;;;8.53;;
27161;SDS011;54464;50.558;9.704;2023-03-12T14:47:28;17.37;;;11.33;;
27161;SDS011;54464;50.558;9.704;2023-03-12T14:49:55;17.07;;;11.97;;
27161;SDS011;54464;50.558;9.704;2023-03-12T14:52:28;16.43;;;11.97;;
27161;SDS011;54464;50.558;9.704;2023-03-12T14:54:58;19.77;;;15.13;;
27161;SDS011;54464;50.558;9.704;2023-03-12T14:57:26;18.70;;;13.63;;
27161;SDS011;54464;50.558;9.704;2023-03-12T14:59:55;17.93;;;12.57;;
27161;SDS011;54464;50.558;9.704;2023-03-12T15:02:22;20.10;;;15.80;;
27161;SDS011;54464;50.558;9.704;2023-03-12T15:04:50;19.77;;;15.03;;
27161;SDS011;54464;50.558;9.704;2023-03-12T15:07:22;13.70;;;11.20;;
27161;SDS011;54464;50.558;9.704;2023-03-12T15:09:54;16.77;;;14.27;;
27161;SDS011;54464;50.558;9.704;2023-03-12T15:12:21;20.13;;;16.37;;
27161;SDS011;54464;50.558;9.704;2023-03-12T15:14:49;7.57;;;6.80;;
27161;SDS011;54464;50.558;9.704;2023-03-12T15:17:25;17.67;;;13.60;;
27161;SDS011;54464;50.558;9.704;2023-03-12T15:19:54;18.17;;;15.27;;
27161;SDS011;54464;50.558;9.704;2023-03-12T15:22:21;16.70;;;12.43;;
27161;SDS011;54464;50.558;9.704;2023-03-12T15:24:49;12.07;;;9.57;;
27161;SDS011;54464;50.558;9.704;2023-03-12T15:29:52;12.30;;;9.97;;
27161;SDS011;54464;50.558;9.704;2023-03-12T15:32:20;13.27;;;10.50;;
27161;SDS011;54464;50.558;9.704;2023-03-12T15:34:49;22.10;;;15.73;;
27161;SDS011;54464;50.558;9.704;2023-03-12T15:40:26;20.57;;;16.07;;
27161;SDS011;54464;50.558;9.704;2023-03-12T15:42:51;13.53;;;9.23;;
27161;SDS011;54464;50.558;9.704;2023-03-12T15:48:01;25.10;;;18.90;;
27161;SDS011;54464;50.558;9.704;2023-03-12T15:50:29;22.33;;;18.63;;
27161;SDS011;54464;50.558;9.704;2023-03-12T15:58:41;24.73;;;20.50;;
27161;SDS011;54464;50.558;9.704;2023-03-12T16:01:11;21.53;;;17.47;;
27161;SDS011;54464;50.558;9.704;2023-03-12T16:03:37;16.30;;;13.33;;
27161;SDS011;54464;50.558;9.704;2023-03-12T16:06:04;21.33;;;16.27;;
27161;SDS011;54464;50.558;9.704;2023-03-12T16:08:38;14.47;;;9.67;;
27161;SDS011;54464;50.558;9.704;2023-03-12T16:11:15;21.97;;;17.47;;
27161;SDS011;54464;50.558;9.704;2023-03-12T16:13:43;20.33;;;13.97;;
27161;SDS011;54464;50.558;9.704;2023-03-12T16:16:11;25.77;;;21.87;;
27161;SDS011;54464;50.558;9.704;2023-03-12T16:18:38;17.93;;;13.13;;
27161;SDS011;54464;50.558;9.704;2023-03-12T16:21:04;21.43;;;16.63;;
27161;SDS011;54464;50.558;9.704;2023-03-12T16:23:30;27.00;;;19.97;;
27161;SDS011;54464;50.558;9.704;2023-03-12T16:25:56;16.37;;;12.67;;
27161;SDS011;54464;50.558;9.704;2023-03-12T16:28:22;25.63;;;19.77;;
27161;SDS011;54464;50.558;9.704;2023-03-12T16:30:49;27.03;;;18.43;;
27161;SDS011;54464;50.558;9.704;2023-03-12T16:33:19;27.83;;;21.17;;
27161;SDS011;54464;50.558;9.704;2023-03-12T16:35:46;26.63;;;20.43;;
27161;SDS011;54464;50.558;9.704;2023-03-12T16:38:13;27.37;;;20.23;;
27161;SDS011;54464;50.558;9.704;2023-03-12T16:40:40;29.20;;;22.17;;
27161;SDS011;54464;50.558;9.704;2023-03-12T16:43:12;29.70;;;23.77;;
27161;SDS011;54464;50.558;9.704;2023-03-12T16:45:42;23.60;;;15.63;;
27161;SDS011;54464;50.558;9.704;2023-03-12T16:48:12;29.17;;;22.03;;
27161;SDS011;54464;50.558;9.704;2023-03-12T16:50:40;32.20;;;23.27;;
27161;SDS011;54464;50.558;9.704;2023-03-12T16:53:11;20.40;;;15.10;;
27161;SDS011;54464;50.558;9.704;2023-03-12T16:55:45;30.57;;;22.50;;